Melhor site de API de vídeo gratuito

AVDBAPI.COM

Pesquise no catálogo, confira registros e copie URLs limpas da API em um painel rápido.

Telegram Join Our Telegram Community for Updates!
Today
0
Atualizações hoje
Censored
314089
Censored Videos
Total
474268
Total Videos

Lista de vídeos

Registros mais recentes ordenados pela data de atualização.

ID Nome CODE Categoria Atualizado API
264146 PMC457 Pelo status da família, ela não hesita em foder o próprio filho PMC457 AV chinês 2025-08-29 01:42:40 API
264145 C0930-KI210926 Mulher Madura de 43 Anos Yukie Saito C0930-KI210926 Sem censura 2025-08-29 01:42:30 API
264144 HEYZO-2741 Honoka Orihara [Honoka Orihara] Minha nora, orgulhosa de seus peitos enormes, estava provocando o presidente HEYZO-2741 Sem censura 2025-08-29 01:42:20 API
264143 110216-001 Seduzi minha filha que veio para uma entrevista de emprego de meio período e ejaculei dentro da vagina dela 110216-001 Sem censura 2025-08-29 01:42:10 API
264142 020121-429 A esposa de aluguel que faz todo o trabalho doméstico e é perfeita no sexo 020121-429 Sem censura 2025-08-29 01:42:00 API
264141 021122-001 A Melhor História da Princesa das Bolhas Vol.98 Erica Shiomi 021122-001 Sem censura 2025-08-29 01:41:50 API
264140 RED-105-B Coleção Fetichista Quente Vol.87: Kimono Sexy RED-105-B Sem censura 2025-08-29 01:41:40 API
264139 CUS-1819 Encontrar amigas para seduzir o marido e roubar a indenização da demolição CUS-1819 AV chinês 2025-08-29 01:41:30 API
264138 H-220619 Naomi Kodera H-220619 Sem censura 2025-08-29 01:41:20 API
264137 C0930-KI210928 Maya Yasuhara, 22 anos C0930-KI210928 Sem censura 2025-08-29 01:41:10 API
264136 H0930-KI220317 Yoriko Aizawa Mulher Madura de 44 Anos H0930-KI220317 Sem censura 2025-08-29 01:41:00 API
264135 FC2-PPV-4499632 fc2-ppv-4499632 FC2-PPV-4499632 Sem censura 2025-08-29 01:40:50 API
264134 052621-01 Seleção de bocas preciosas - Veja a buceta da Kaori - 052621-01 Sem censura 2025-08-29 01:40:40 API
264133 HEYZO-2697 Brincando com o Cherry Boy da Otsuki sem o marido saber Vol.6 HEYZO-2697 Sem censura 2025-08-29 01:40:30 API
264132 110316-005 Rina Uchimura, a melhor atriz que consegue gozar 3 vezes seguidas com facilidade 110316-005 Sem censura 2025-08-29 01:40:20 API
264131 ATID-557 Voltei para minha cidade natal após anos e suei de desejo com minha cunhada sedutora Miu Shiramine ATID-557 Mosaicado 2025-08-29 01:40:10 API
264130 021322-001 Beleza curvilínea que trai três homens ao mesmo tempo Mao Haumino 021322-001 Sem censura 2025-08-29 01:40:00 API
264129 020421-430 Rosto Natural Mulher Madura - O verdadeiro rosto de uma mulher casada que parece comportada, mas é louca por pau 020421-430 Sem censura 2025-08-29 01:39:50 API
264128 052721-01 Como esta garota trabalha - Por favor, meça meu corpo de luxúria novamente - 052721-01 Sem censura 2025-08-29 01:39:40 API
264127 PME097 O Plano de um Rico para Realizar seu Sonho: Seducir com o Corpo para a Procriação PME097 AV chinês 2025-08-29 01:39:30 API
264126 090120_001 Hospitalidade de luxo para te fazer sentir o melhor clímax 090120_001 Sem censura 2025-08-29 01:39:20 API
264125 H0930-ORI1624 Ayaka Yoshioka, uma beldade de 29 anos H0930-ORI1624 Sem censura 2025-08-29 01:39:10 API
264124 C0930-KI210930 A sexy Isobe Kimie, 26 anos C0930-KI210930 Sem censura 2025-08-29 01:39:00 API
264123 H-0064 Yuiko Matsuda H-0064 Sem censura 2025-08-29 01:38:50 API
264121 MCY0223 Consegui fazer meu pai foder minha buceta, viciada no prazer imoral MCY0223 AV chinês 2025-08-29 01:38:30 API
264120 FC2-PPV-4499801 Uma assistente de verdade! Aos 8 anos, entrei em uma famosa faculdade de medicina para atividades extracurriculares FC2-PPV-4499801 Sem censura 2025-08-29 01:38:20 API
264119 110316-006 Full Fuck! 3 jatos massivos de esperma no vagina de uma gata linda 110316-006 Sem censura 2025-08-29 01:38:10 API
264118 HEYZO-2698 Ayase Dewashi [Ayase Tsuyuri] A deusa do leite vai te servir intensamente! HEYZO-2698 Sem censura 2025-08-29 01:38:00 API
264117 020621-431 Tartaruga de Casco Mole na Porta 26 ~ Bela Mulher Madura com Lingerie Sexy ~ 020621-431 Sem censura 2025-08-29 01:37:50 API
264116 052921-01 Fique excitada com Cosplay de Bondage! 052921-01 Sem censura 2025-08-29 01:37:40 API
264115 C0930-HITOZUMA1364 A Linda Esposa de 33 Anos Nozaki Miharu C0930-HITOZUMA1364 Sem censura 2025-08-29 01:37:30 API
264113 CUS-1821 Minha namorada que está sempre mudando para uma versão mais safada CUS-1821 AV chinês 2025-08-29 01:37:10 API
264112 H0930-KI220319 Especial de Masturbação em Autoretrato H0930-KI220319 Sem censura 2025-08-29 01:37:00 API
264111 021622-001 [VR] Eu peguei um garoto fugitivo e o transformei no meu brinquedinho sexual! Nagisa Karin 021622-001 Sem censura 2025-08-29 01:36:50 API
264110 110316-004 Um após o outro, Dopyudobu se lança sobre esse corpo maravilhoso! 110316-004 Sem censura 2025-08-29 01:36:40 API
264109 090320_001 Nami Umisaki, a esposa vizinha safada sem sutiã ao tirar o lixo de manhã 090320_001 Sem censura 2025-08-29 01:36:30 API
264108 H4610-KI220621 Miku Ichikawa com 19 anos H4610-KI220621 Sem censura 2025-08-29 01:36:20 API
264107 HEYZO-2699 Miku Aoyama Prazer com uma massagem erótica! ~ O caso de Miku Aoyama ~ HEYZO-2699 Sem censura 2025-08-29 01:36:10 API
264106 MFK0012 Amor Obsessivo MFK0012 AV chinês 2025-08-29 01:36:00 API
264105 020921-432 Esposa com erro de aparência no NG 020921-432 Sem censura 2025-08-29 01:35:50 API
264104 KB1549 Team Kimura Edição Especial: Inserção na Estudante - KB1549 Sem censura 2025-08-29 01:35:40 API
264103 FC2-PPV-4501288 A irmã linda e pura que era super safada, o primeiro encontro secreto na loja de bebidas: Handjob e boquete intenso com ejaculação na boca! Uma transformação total em uma vadia insaciável FC2-PPV-4501288 Sem censura 2025-08-29 01:35:30 API
264102 060121-01 Por favor, deixe 060121-01 Sem censura 2025-08-29 01:35:20 API
264101 H0930-KI220320 Yuko Yonekura, 28 anos H0930-KI220320 Sem censura 2025-08-29 01:35:10 API
264100 H-220621 Miku Ichikawa H-220621 Sem censura 2025-08-29 01:35:00 API
264099 110316-002 Uma após a outra, estou amassando esses peitos enormes e macios como marshmallow! 110316-002 Sem censura 2025-08-29 01:34:50 API
264098 C0930-KI211003 Nodoka Sekikawa, uma beldade de 19 anos C0930-KI211003 Sem censura 2025-08-29 01:34:40 API
264097 090520_001 Sexo sem fim com Erena Sasamiya 090520_001 Sem censura 2025-08-29 01:34:30 API
264096 MCY0224 Foder a vadia tarada até suas pernas ficarem bambas e ela ficar viciada no prazer imoral MCY0224 AV chinês 2025-08-29 01:34:20 API
264095 021121-433 O Retorno da Mulher Madura: Lambendo o Ânus Dela sem Parar 021121-433 Sem censura 2025-08-29 01:34:10 API